sensor_id;sensor_type;location;lat;lon;timestamp;pressure;altitude;pressure_sealevel;temperature;humidity
16255;BME280;8235;52.198;9.904;2023-04-23T00:02:11;99909.44;;;16.35;77.35
16255;BME280;8235;52.198;9.904;2023-04-23T00:04:37;99905.03;;;16.33;77.34
16255;BME280;8235;52.198;9.904;2023-04-23T00:07:05;99904.34;;;16.31;77.79
16255;BME280;8235;52.198;9.904;2023-04-23T00:09:34;99898.31;;;16.29;77.95
16255;BME280;8235;52.198;9.904;2023-04-23T00:12:01;99900.16;;;16.29;78.14
16255;BME280;8235;52.198;9.904;2023-04-23T00:14:28;99895.78;;;16.28;78.39
16255;BME280;8235;52.198;9.904;2023-04-23T00:16:55;99894.78;;;16.29;78.70
16255;BME280;8235;52.198;9.904;2023-04-23T00:19:21;99899.47;;;16.27;79.00
16255;BME280;8235;52.198;9.904;2023-04-23T00:21:48;99893.94;;;16.28;79.27
16255;BME280;8235;52.198;9.904;2023-04-23T00:24:14;99887.72;;;16.28;79.67
16255;BME280;8235;52.198;9.904;2023-04-23T00:26:42;99891.25;;;16.28;79.83
16255;BME280;8235;52.198;9.904;2023-04-23T00:29:09;99891.41;;;16.27;80.00
16255;BME280;8235;52.198;9.904;2023-04-23T00:31:35;99893.09;;;16.28;80.00
16255;BME280;8235;52.198;9.904;2023-04-23T00:34:02;99887.88;;;16.26;80.43
16255;BME280;8235;52.198;9.904;2023-04-23T00:36:28;99893.38;;;16.25;80.60
16255;BME280;8235;52.198;9.904;2023-04-23T00:38:55;99886.16;;;16.25;80.95
16255;BME280;8235;52.198;9.904;2023-04-23T00:41:22;99892.41;;;16.26;81.41
16255;BME280;8235;52.198;9.904;2023-04-23T00:43:50;99880.09;;;16.23;81.10
16255;BME280;8235;52.198;9.904;2023-04-23T00:46:18;99887.63;;;16.20;81.36
16255;BME280;8235;52.198;9.904;2023-04-23T00:48:44;99879.84;;;16.17;81.20
16255;BME280;8235;52.198;9.904;2023-04-23T00:51:11;99882.16;;;16.12;81.08
16255;BME280;8235;52.198;9.904;2023-04-23T00:53:37;99885.31;;;16.07;81.30
16255;BME280;8235;52.198;9.904;2023-04-23T00:56:04;99880.22;;;16.04;81.90
16255;BME280;8235;52.198;9.904;2023-04-23T00:58:33;99879.53;;;16.02;82.10
16255;BME280;8235;52.198;9.904;2023-04-23T01:01:00;99884.19;;;16.00;82.20
16255;BME280;8235;52.198;9.904;2023-04-23T01:03:29;99889.72;;;15.98;82.45
16255;BME280;8235;52.198;9.904;2023-04-23T01:05:56;99881.28;;;15.93;82.03
16255;BME280;8235;52.198;9.904;2023-04-23T01:08:24;99878.19;;;15.88;82.45
16255;BME280;8235;52.198;9.904;2023-04-23T01:10:51;99883.16;;;15.83;82.40
16255;BME280;8235;52.198;9.904;2023-04-23T01:13:18;99882.75;;;15.78;82.45
16255;BME280;8235;52.198;9.904;2023-04-23T01:15:46;99881.38;;;15.74;82.80
16255;BME280;8235;52.198;9.904;2023-04-23T01:18:14;99877.31;;;15.70;83.15
16255;BME280;8235;52.198;9.904;2023-04-23T01:20:43;99885.78;;;15.66;82.98
16255;BME280;8235;52.198;9.904;2023-04-23T01:23:11;99877.47;;;15.59;83.32
16255;BME280;8235;52.198;9.904;2023-04-23T01:25:37;99879.75;;;15.54;83.36
16255;BME280;8235;52.198;9.904;2023-04-23T01:28:05;99880.19;;;15.49;83.92
16255;BME280;8235;52.198;9.904;2023-04-23T01:30:32;99882.16;;;15.47;84.08
16255;BME280;8235;52.198;9.904;2023-04-23T01:32:58;99884.28;;;15.44;84.30
16255;BME280;8235;52.198;9.904;2023-04-23T01:35:26;99886.44;;;15.40;84.45
16255;BME280;8235;52.198;9.904;2023-04-23T01:37:52;99877.13;;;15.35;84.81
16255;BME280;8235;52.198;9.904;2023-04-23T01:40:21;99883.78;;;15.31;84.78
16255;BME280;8235;52.198;9.904;2023-04-23T01:42:49;99884.06;;;15.27;84.79
16255;BME280;8235;52.198;9.904;2023-04-23T01:45:16;99879.28;;;15.21;84.54
16255;BME280;8235;52.198;9.904;2023-04-23T01:47:43;99881.56;;;15.16;84.51
16255;BME280;8235;52.198;9.904;2023-04-23T01:50:10;99883.69;;;15.13;84.50
16255;BME280;8235;52.198;9.904;2023-04-23T01:52:37;99889.31;;;15.10;84.58
16255;BME280;8235;52.198;9.904;2023-04-23T01:55:04;99894.44;;;15.03;83.97
16255;BME280;8235;52.198;9.904;2023-04-23T01:57:32;99891.19;;;15.00;83.71
16255;BME280;8235;52.198;9.904;2023-04-23T02:00:02;99892.47;;;14.96;83.71
16255;BME280;8235;52.198;9.904;2023-04-23T02:02:32;99898.09;;;14.92;83.98
16255;BME280;8235;52.198;9.904;2023-04-23T02:05:00;99897.53;;;14.89;83.96
16255;BME280;8235;52.198;9.904;2023-04-23T02:07:29;99892.50;;;14.86;83.56
16255;BME280;8235;52.198;9.904;2023-04-23T02:09:55;99899.13;;;14.82;83.96
16255;BME280;8235;52.198;9.904;2023-04-23T02:12:22;99894.88;;;14.79;83.90
16255;BME280;8235;52.198;9.904;2023-04-23T02:14:50;99906.59;;;14.78;84.44
16255;BME280;8235;52.198;9.904;2023-04-23T02:17:18;99901.66;;;14.74;84.10
16255;BME280;8235;52.198;9.904;2023-04-23T02:19:45;99907.44;;;14.69;84.24
16255;BME280;8235;52.198;9.904;2023-04-23T02:22:12;99909.56;;;14.66;84.41
16255;BME280;8235;52.198;9.904;2023-04-23T02:24:38;99905.47;;;14.62;84.33
16255;BME280;8235;52.198;9.904;2023-04-23T02:27:06;99910.41;;;14.56;84.26
16255;BME280;8235;52.198;9.904;2023-04-23T02:29:32;99909.97;;;14.51;84.32
16255;BME280;8235;52.198;9.904;2023-04-23T02:32:00;99914.78;;;14.48;84.48
16255;BME280;8235;52.198;9.904;2023-04-23T02:34:26;99918.59;;;14.45;84.42
16255;BME280;8235;52.198;9.904;2023-04-23T02:36:53;99916.19;;;14.42;84.88
16255;BME280;8235;52.198;9.904;2023-04-23T02:39:19;99919.00;;;14.41;85.00
16255;BME280;8235;52.198;9.904;2023-04-23T02:41:46;99925.44;;;14.38;85.10
16255;BME280;8235;52.198;9.904;2023-04-23T02:44:12;99920.34;;;14.35;85.10
16255;BME280;8235;52.198;9.904;2023-04-23T02:46:39;99927.69;;;14.33;85.32
16255;BME280;8235;52.198;9.904;2023-04-23T02:49:06;99919.22;;;14.28;86.10
16255;BME280;8235;52.198;9.904;2023-04-23T02:51:33;99927.41;;;14.27;86.12
16255;BME280;8235;52.198;9.904;2023-04-23T02:53:59;99920.34;;;14.25;86.52
16255;BME280;8235;52.198;9.904;2023-04-23T02:56:28;99926.81;;;14.23;86.68
16255;BME280;8235;52.198;9.904;2023-04-23T02:58:54;99921.75;;;14.20;86.93
16255;BME280;8235;52.198;9.904;2023-04-23T03:01:21;99929.19;;;14.16;87.05
16255;BME280;8235;52.198;9.904;2023-04-23T03:03:47;99922.31;;;14.14;87.59
16255;BME280;8235;52.198;9.904;2023-04-23T03:06:15;99919.75;;;14.12;88.24
16255;BME280;8235;52.198;9.904;2023-04-23T03:08:42;99922.59;;;14.11;88.39
16255;BME280;8235;52.198;9.904;2023-04-23T03:11:08;99927.09;;;14.10;88.22
16255;BME280;8235;52.198;9.904;2023-04-23T03:13:34;99935.25;;;14.09;88.84
16255;BME280;8235;52.198;9.904;2023-04-23T03:16:01;99931.00;;;14.06;88.88
16255;BME280;8235;52.198;9.904;2023-04-23T03:18:28;99933.81;;;14.05;89.18
16255;BME280;8235;52.198;9.904;2023-04-23T03:20:54;99936.50;;;14.05;89.09
16255;BME280;8235;52.198;9.904;2023-04-23T03:23:23;99938.34;;;14.04;89.71
16255;BME280;8235;52.198;9.904;2023-04-23T03:25:49;99935.78;;;14.03;89.43
16255;BME280;8235;52.198;9.904;2023-04-23T03:28:16;99935.06;;;14.01;89.63
16255;BME280;8235;52.198;9.904;2023-04-23T03:30:42;99936.06;;;14.00;90.00
16255;BME280;8235;52.198;9.904;2023-04-23T03:33:09;99938.88;;;13.98;89.95
16255;BME280;8235;52.198;9.904;2023-04-23T03:35:36;99941.72;;;13.97;90.01
16255;BME280;8235;52.198;9.904;2023-04-23T03:38:02;99941.00;;;13.95;90.33
16255;BME280;8235;52.198;9.904;2023-04-23T03:40:30;99935.78;;;13.93;90.36
16255;BME280;8235;52.198;9.904;2023-04-23T03:42:56;99943.94;;;13.92;90.72
16255;BME280;8235;52.198;9.904;2023-04-23T03:45:24;99949.69;;;13.87;91.02
16255;BME280;8235;52.198;9.904;2023-04-23T03:47:50;99944.72;;;13.82;90.55
16255;BME280;8235;52.198;9.904;2023-04-23T03:50:17;99943.59;;;13.75;90.47
16255;BME280;8235;52.198;9.904;2023-04-23T03:52:43;99945.09;;;13.68;90.60
16255;BME280;8235;52.198;9.904;2023-04-23T03:55:09;99942.81;;;13.64;90.35
16255;BME280;8235;52.198;9.904;2023-04-23T03:57:37;99955.91;;;13.57;90.16
16255;BME280;8235;52.198;9.904;2023-04-23T04:00:05;99951.06;;;13.51;90.28
16255;BME280;8235;52.198;9.904;2023-04-23T04:02:34;99953.28;;;13.46;90.22
16255;BME280;8235;52.198;9.904;2023-04-23T04:05:00;99961.59;;;13.43;90.34
16255;BME280;8235;52.198;9.904;2023-04-23T04:07:27;99957.38;;;13.40;90.57
16255;BME280;8235;52.198;9.904;2023-04-23T04:09:53;99961.28;;;13.36;90.40
16255;BME280;8235;52.198;9.904;2023-04-23T04:12:20;99952.66;;;13.33;90.59
16255;BME280;8235;52.198;9.904;2023-04-23T04:14:47;99958.25;;;13.30;90.31
16255;BME280;8235;52.198;9.904;2023-04-23T04:17:14;99959.78;;;13.23;90.13
16255;BME280;8235;52.198;9.904;2023-04-23T04:19:40;99965.38;;;13.19;90.23
16255;BME280;8235;52.198;9.904;2023-04-23T04:22:07;99975.50;;;13.16;90.12
16255;BME280;8235;52.198;9.904;2023-04-23T04:24:33;99970.22;;;13.14;90.45
16255;BME280;8235;52.198;9.904;2023-04-23T04:27:00;99970.22;;;13.14;90.97
16255;BME280;8235;52.198;9.904;2023-04-23T04:29:27;99973.03;;;13.13;90.70
16255;BME280;8235;52.198;9.904;2023-04-23T04:31:55;99966.84;;;13.12;90.94
16255;BME280;8235;52.198;9.904;2023-04-23T04:34:22;99977.78;;;13.09;90.99
16255;BME280;8235;52.198;9.904;2023-04-23T04:36:48;99979.78;;;13.07;90.87
16255;BME280;8235;52.198;9.904;2023-04-23T04:39:15;99981.13;;;13.02;90.73
16255;BME280;8235;52.198;9.904;2023-04-23T04:41:43;99976.75;;;13.01;90.97
16255;BME280;8235;52.198;9.904;2023-04-23T04:44:09;99985.03;;;12.98;90.88
16255;BME280;8235;52.198;9.904;2023-04-23T04:46:38;99991.47;;;12.95;91.11
16255;BME280;8235;52.198;9.904;2023-04-23T04:49:08;100000.59;;;12.93;91.00
16255;BME280;8235;52.198;9.904;2023-04-23T04:51:35;100002.69;;;12.89;91.38
16255;BME280;8235;52.198;9.904;2023-04-23T04:54:02;99997.47;;;12.88;91.96
16255;BME280;8235;52.198;9.904;2023-04-23T04:56:29;99997.59;;;12.86;91.87
16255;BME280;8235;52.198;9.904;2023-04-23T04:58:55;99997.84;;;12.83;92.08
16255;BME280;8235;52.198;9.904;2023-04-23T05:01:22;99995.31;;;12.81;91.52
16255;BME280;8235;52.198;9.904;2023-04-23T05:03:50;100000.91;;;12.78;91.68
16255;BME280;8235;52.198;9.904;2023-04-23T05:06:19;100012.56;;;12.77;91.80
16255;BME280;8235;52.198;9.904;2023-04-23T05:08:45;100016.31;;;12.75;91.59
16255;BME280;8235;52.198;9.904;2023-04-23T05:11:13;100019.13;;;12.73;91.33
16255;BME280;8235;52.198;9.904;2023-04-23T05:13:40;100013.94;;;12.72;91.71
16255;BME280;8235;52.198;9.904;2023-04-23T05:16:06;100011.09;;;12.73;91.67
16255;BME280;8235;52.198;9.904;2023-04-23T05:18:33;100015.59;;;12.73;91.77
16255;BME280;8235;52.198;9.904;2023-04-23T05:21:00;100014.91;;;12.71;91.54
16255;BME280;8235;52.198;9.904;2023-04-23T05:23:28;100015.75;;;12.71;91.61
16255;BME280;8235;52.198;9.904;2023-04-23T05:25:54;100013.09;;;12.71;91.79
16255;BME280;8235;52.198;9.904;2023-04-23T05:28:22;100016.59;;;12.72;91.76
16255;BME280;8235;52.198;9.904;2023-04-23T05:30:49;100020.25;;;12.71;92.10
16255;BME280;8235;52.198;9.904;2023-04-23T05:33:15;100019.28;;;12.72;92.49
16255;BME280;8235;52.198;9.904;2023-04-23T05:35:42;100029.81;;;12.73;92.68
16255;BME280;8235;52.198;9.904;2023-04-23T05:38:08;100032.47;;;12.73;92.54
16255;BME280;8235;52.198;9.904;2023-04-23T05:40:37;100027.00;;;12.75;92.56
16255;BME280;8235;52.198;9.904;2023-04-23T05:43:04;100026.88;;;12.76;93.02
16255;BME280;8235;52.198;9.904;2023-04-23T05:45:30;100028.72;;;12.76;93.14
16255;BME280;8235;52.198;9.904;2023-04-23T05:47:56;100030.66;;;12.74;93.23
16255;BME280;8235;52.198;9.904;2023-04-23T05:50:24;100033.59;;;12.71;93.20
16255;BME280;8235;52.198;9.904;2023-04-23T05:52:50;100034.56;;;12.70;93.18
16255;BME280;8235;52.198;9.904;2023-04-23T05:55:16;100036.28;;;12.71;93.65
16255;BME280;8235;52.198;9.904;2023-04-23T05:57:46;100037.81;;;12.73;93.59
16255;BME280;8235;52.198;9.904;2023-04-23T06:00:12;100042.19;;;12.74;93.86
16255;BME280;8235;52.198;9.904;2023-04-23T06:02:39;100039.41;;;12.76;94.12
16255;BME280;8235;52.198;9.904;2023-04-23T06:05:07;100057.00;;;12.78;94.15
16255;BME280;8235;52.198;9.904;2023-04-23T06:07:34;100059.69;;;12.78;94.50
16255;BME280;8235;52.198;9.904;2023-04-23T06:10:01;100060.53;;;12.79;94.41
16255;BME280;8235;52.198;9.904;2023-04-23T06:12:28;100065.03;;;12.78;94.55
16255;BME280;8235;52.198;9.904;2023-04-23T06:14:56;100069.41;;;12.79;94.68
16255;BME280;8235;52.198;9.904;2023-04-23T06:17:23;100066.00;;;12.77;94.63
16255;BME280;8235;52.198;9.904;2023-04-23T06:19:49;100062.47;;;12.77;94.37
16255;BME280;8235;52.198;9.904;2023-04-23T06:22:16;100055.44;;;12.76;94.07
16255;BME280;8235;52.198;9.904;2023-04-23T06:24:42;100053.72;;;12.75;94.52
16255;BME280;8235;52.198;9.904;2023-04-23T06:27:09;100052.03;;;12.74;94.66
16255;BME280;8235;52.198;9.904;2023-04-23T06:29:35;100057.66;;;12.71;94.01
16255;BME280;8235;52.198;9.904;2023-04-23T06:32:03;100056.94;;;12.69;93.41
16255;BME280;8235;52.198;9.904;2023-04-23T06:34:30;100053.66;;;12.65;93.01
16255;BME280;8235;52.198;9.904;2023-04-23T06:36:57;100058.03;;;12.66;93.29
16255;BME280;8235;52.198;9.904;2023-04-23T06:39:23;100054.50;;;12.66;92.99
16255;BME280;8235;52.198;9.904;2023-04-23T06:41:50;100052.78;;;12.65;92.61
16255;BME280;8235;52.198;9.904;2023-04-23T06:44:17;100048.53;;;12.62;91.87
16255;BME280;8235;52.198;9.904;2023-04-23T06:46:43;100045.03;;;12.62;91.81
16255;BME280;8235;52.198;9.904;2023-04-23T06:49:11;100042.22;;;12.63;91.60
16255;BME280;8235;52.198;9.904;2023-04-23T06:51:37;100045.75;;;12.64;91.66
16255;BME280;8235;52.198;9.904;2023-04-23T06:54:04;100053.53;;;12.67;91.46
16255;BME280;8235;52.198;9.904;2023-04-23T06:56:30;100054.13;;;12.70;91.34
16255;BME280;8235;52.198;9.904;2023-04-23T06:58:57;100050.22;;;12.74;91.40
16255;BME280;8235;52.198;9.904;2023-04-23T07:01:23;100032.97;;;12.78;91.11
16255;BME280;8235;52.198;9.904;2023-04-23T07:03:50;100042.56;;;12.81;90.81
16255;BME280;8235;52.198;9.904;2023-04-23T07:06:19;100039.50;;;12.85;90.64
16255;BME280;8235;52.198;9.904;2023-04-23T07:08:46;100041.78;;;12.90;90.50
16255;BME280;8235;52.198;9.904;2023-04-23T07:11:12;100039.72;;;12.94;90.51
16255;BME280;8235;52.198;9.904;2023-04-23T07:13:39;100034.09;;;12.97;90.46
16255;BME280;8235;52.198;9.904;2023-04-23T07:16:06;100031.78;;;13.03;91.17
16255;BME280;8235;52.198;9.904;2023-04-23T07:18:32;100023.25;;;13.09;91.03
16255;BME280;8235;52.198;9.904;2023-04-23T07:20:58;100019.25;;;13.15;90.99
16255;BME280;8235;52.198;9.904;2023-04-23T07:23:26;100025.06;;;13.20;90.54
16255;BME280;8235;52.198;9.904;2023-04-23T07:25:53;100022.97;;;13.24;90.20
16255;BME280;8235;52.198;9.904;2023-04-23T07:28:19;100029.63;;;13.29;90.08
16255;BME280;8235;52.198;9.904;2023-04-23T07:30:46;100023.63;;;13.37;89.71
16255;BME280;8235;52.198;9.904;2023-04-23T07:33:13;100023.97;;;13.43;88.46
16255;BME280;8235;52.198;9.904;2023-04-23T07:35:39;100019.19;;;13.47;87.00
16255;BME280;8235;52.198;9.904;2023-04-23T07:38:06;100014.31;;;13.52;85.95
16255;BME280;8235;52.198;9.904;2023-04-23T07:40:34;100023.16;;;13.52;83.73
16255;BME280;8235;52.198;9.904;2023-04-23T07:43:01;100026.81;;;13.51;82.49
16255;BME280;8235;52.198;9.904;2023-04-23T07:45:27;100026.81;;;13.51;80.95
16255;BME280;8235;52.198;9.904;2023-04-23T07:47:54;100025.72;;;13.54;79.89
16255;BME280;8235;52.198;9.904;2023-04-23T07:50:20;100030.56;;;13.60;79.65
16255;BME280;8235;52.198;9.904;2023-04-23T07:52:47;100014.28;;;13.73;79.40
16255;BME280;8235;52.198;9.904;2023-04-23T07:55:13;100010.16;;;13.89;78.83
16255;BME280;8235;52.198;9.904;2023-04-23T07:57:41;100009.78;;;14.04;77.93
16255;BME280;8235;52.198;9.904;2023-04-23T08:00:08;100006.84;;;14.16;76.59
16255;BME280;8235;52.198;9.904;2023-04-23T08:02:35;100003.97;;;14.29;76.91
16255;BME280;8235;52.198;9.904;2023-04-23T08:05:02;99998.97;;;14.45;76.36
16255;BME280;8235;52.198;9.904;2023-04-23T08:07:28;99998.56;;;14.59;74.68
16255;BME280;8235;52.198;9.904;2023-04-23T08:09:55;99989.25;;;14.73;73.34
16255;BME280;8235;52.198;9.904;2023-04-23T08:12:26;99987.44;;;14.83;71.58
16255;BME280;8235;52.198;9.904;2023-04-23T08:14:54;99993.50;;;14.95;71.52
16255;BME280;8235;52.198;9.904;2023-04-23T08:17:21;99999.00;;;15.13;71.83
16255;BME280;8235;52.198;9.904;2023-04-23T08:19:47;99986.72;;;15.29;70.76
16255;BME280;8235;52.198;9.904;2023-04-23T08:22:14;99992.59;;;15.43;68.96
16255;BME280;8235;52.198;9.904;2023-04-23T08:24:41;99992.88;;;15.49;67.65
16255;BME280;8235;52.198;9.904;2023-04-23T08:27:08;99986.41;;;15.52;67.66
16255;BME280;8235;52.198;9.904;2023-04-23T08:29:34;99997.13;;;15.61;68.30
16255;BME280;8235;52.198;9.904;2023-04-23T08:32:02;99986.63;;;15.78;67.69
16255;BME280;8235;52.198;9.904;2023-04-23T08:34:29;99987.44;;;15.88;65.32
16255;BME280;8235;52.198;9.904;2023-04-23T08:36:55;99976.56;;;15.89;64.30
16255;BME280;8235;52.198;9.904;2023-04-23T08:39:21;99980.31;;;15.96;64.47
16255;BME280;8235;52.198;9.904;2023-04-23T08:41:53;99981.16;;;16.07;62.17
16255;BME280;8235;52.198;9.904;2023-04-23T08:44:22;99994.38;;;16.18;61.45
16255;BME280;8235;52.198;9.904;2023-04-23T08:46:48;99990.81;;;16.27;58.76
16255;BME280;8235;52.198;9.904;2023-04-23T08:49:17;99983.81;;;16.34;58.31
16255;BME280;8235;52.198;9.904;2023-04-23T08:51:47;99991.16;;;16.42;56.52
16255;BME280;8235;52.198;9.904;2023-04-23T08:54:18;99986.41;;;16.53;56.99
16255;BME280;8235;52.198;9.904;2023-04-23T08:56:48;99977.16;;;16.65;55.78
16255;BME280;8235;52.198;9.904;2023-04-23T08:59:17;99975.78;;;16.79;55.41
16255;BME280;8235;52.198;9.904;2023-04-23T09:01:45;99979.53;;;16.86;52.91
16255;BME280;8235;52.198;9.904;2023-04-23T09:04:12;99976.09;;;16.94;52.78
16255;BME280;8235;52.198;9.904;2023-04-23T09:06:42;99968.63;;;17.06;51.62
16255;BME280;8235;52.198;9.904;2023-04-23T09:09:08;99960.47;;;17.15;51.97
16255;BME280;8235;52.198;9.904;2023-04-23T09:11:36;99958.84;;;17.22;51.41
16255;BME280;8235;52.198;9.904;2023-04-23T09:14:04;99961.97;;;17.35;52.11
16255;BME280;8235;52.198;9.904;2023-04-23T09:16:30;99959.25;;;17.53;51.32
16255;BME280;8235;52.198;9.904;2023-04-23T09:18:57;99947.38;;;17.64;50.90
16255;BME280;8235;52.198;9.904;2023-04-23T09:21:24;99952.84;;;17.72;50.14
16255;BME280;8235;52.198;9.904;2023-04-23T09:23:52;99952.16;;;17.78;50.80
16255;BME280;8235;52.198;9.904;2023-04-23T09:26:19;99943.66;;;17.91;50.85
16255;BME280;8235;52.198;9.904;2023-04-23T09:28:47;99942.22;;;18.04;49.99
16255;BME280;8235;52.198;9.904;2023-04-23T09:31:15;99943.59;;;18.17;50.11
16255;BME280;8235;52.198;9.904;2023-04-23T09:33:49;99942.63;;;18.26;49.34
16255;BME280;8235;52.198;9.904;2023-04-23T09:36:19;99945.00;;;18.37;48.58
16255;BME280;8235;52.198;9.904;2023-04-23T09:38:45;99941.50;;;18.45;48.30
16255;BME280;8235;52.198;9.904;2023-04-23T09:41:24;99940.50;;;18.54;48.79
16255;BME280;8235;52.198;9.904;2023-04-23T09:43:52;99939.72;;;18.61;47.53
16255;BME280;8235;52.198;9.904;2023-04-23T09:46:31;99936.84;;;18.71;47.56
16255;BME280;8235;52.198;9.904;2023-04-23T09:48:59;99927.41;;;18.75;46.72
16255;BME280;8235;52.198;9.904;2023-04-23T09:51:26;99935.50;;;18.83;46.86
16255;BME280;8235;52.198;9.904;2023-04-23T09:53:53;99941.78;;;18.92;46.23
16255;BME280;8235;52.198;9.904;2023-04-23T09:56:19;99948.16;;;18.99;46.18
16255;BME280;8235;52.198;9.904;2023-04-23T09:58:47;99939.56;;;19.03;45.35
16255;BME280;8235;52.198;9.904;2023-04-23T10:01:14;99932.16;;;19.05;44.75
16255;BME280;8235;52.198;9.904;2023-04-23T10:03:41;99923.56;;;19.10;45.56
16255;BME280;8235;52.198;9.904;2023-04-23T10:06:12;99919.66;;;19.21;45.79
16255;BME280;8235;52.198;9.904;2023-04-23T10:08:39;99938.56;;;19.29;45.37
16255;BME280;8235;52.198;9.904;2023-04-23T10:11:06;99924.56;;;19.33;44.67
16255;BME280;8235;52.198;9.904;2023-04-23T10:13:33;99920.47;;;19.37;44.76
16255;BME280;8235;52.198;9.904;2023-04-23T10:16:03;99919.47;;;19.47;45.11
16255;BME280;8235;52.198;9.904;2023-04-23T10:18:31;99915.06;;;19.54;44.51
16255;BME280;8235;52.198;9.904;2023-04-23T10:21:00;99912.53;;;19.60;44.52
16255;BME280;8235;52.198;9.904;2023-04-23T10:23:27;99906.63;;;19.65;44.10
16255;BME280;8235;52.198;9.904;2023-04-23T10:25:56;99914.50;;;19.74;44.37
16255;BME280;8235;52.198;9.904;2023-04-23T10:28:25;99899.97;;;19.84;44.34
16255;BME280;8235;52.198;9.904;2023-04-23T10:30:56;99909.59;;;19.86;43.42
16255;BME280;8235;52.198;9.904;2023-04-23T10:33:25;99901.09;;;19.89;43.26
16255;BME280;8235;52.198;9.904;2023-04-23T10:35:53;99899.41;;;19.96;43.82
16255;BME280;8235;52.198;9.904;2023-04-23T10:38:21;99901.75;;;19.99;43.32
16255;BME280;8235;52.198;9.904;2023-04-23T10:40:52;99895.69;;;19.97;42.63
16255;BME280;8235;52.198;9.904;2023-04-23T10:43:20;99912.06;;;19.96;43.77
16255;BME280;8235;52.198;9.904;2023-04-23T10:45:48;99911.38;;;20.02;44.21
16255;BME280;8235;52.198;9.904;2023-04-23T10:48:15;99905.63;;;20.05;43.54
16255;BME280;8235;52.198;9.904;2023-04-23T10:50:43;99911.88;;;20.05;44.35
16255;BME280;8235;52.198;9.904;2023-04-23T10:53:17;99893.56;;;20.16;44.07
16255;BME280;8235;52.198;9.904;2023-04-23T10:55:45;99895.19;;;20.25;43.00
16255;BME280;8235;52.198;9.904;2023-04-23T10:58:12;99891.78;;;20.39;43.62
16255;BME280;8235;52.198;9.904;2023-04-23T11:00:43;99895.75;;;20.51;43.43
16255;BME280;8235;52.198;9.904;2023-04-23T11:03:28;99890.09;;;20.61;42.87
16255;BME280;8235;52.198;9.904;2023-04-23T11:05:57;99888.91;;;20.63;42.71
16255;BME280;8235;52.198;9.904;2023-04-23T11:08:28;99882.59;;;20.71;42.35
16255;BME280;8235;52.198;9.904;2023-04-23T11:10:57;99880.19;;;20.76;41.61
16255;BME280;8235;52.198;9.904;2023-04-23T11:13:25;99879.16;;;20.77;41.48
16255;BME280;8235;52.198;9.904;2023-04-23T11:16:13;99878.06;;;20.86;41.91
16255;BME280;8235;52.198;9.904;2023-04-23T11:18:59;99873.63;;;20.93;41.43
16255;BME280;8235;52.198;9.904;2023-04-23T11:22:00;99866.16;;;20.95;41.87
16255;BME280;8235;52.198;9.904;2023-04-23T11:24:29;99865.59;;;21.00;41.37
16255;BME280;8235;52.198;9.904;2023-04-23T11:26:56;99873.66;;;21.08;41.76
16255;BME280;8235;52.198;9.904;2023-04-23T11:29:25;99859.34;;;21.14;40.13
16255;BME280;8235;52.198;9.904;2023-04-23T11:31:52;99851.63;;;21.11;39.70
16255;BME280;8235;52.198;9.904;2023-04-23T11:34:19;99851.63;;;21.11;40.29
16255;BME280;8235;52.198;9.904;2023-04-23T11:36:47;99853.56;;;21.17;39.25
16255;BME280;8235;52.198;9.904;2023-04-23T11:39:15;99851.44;;;21.12;39.50
16255;BME280;8235;52.198;9.904;2023-04-23T11:41:43;99844.16;;;21.13;39.95
16255;BME280;8235;52.198;9.904;2023-04-23T11:44:10;99849.50;;;21.21;40.50
16255;BME280;8235;52.198;9.904;2023-04-23T11:46:37;99844.88;;;21.30;39.82
16255;BME280;8235;52.198;9.904;2023-04-23T11:49:04;99853.44;;;21.33;39.52
16255;BME280;8235;52.198;9.904;2023-04-23T11:51:34;99856.16;;;21.33;39.44
16255;BME280;8235;52.198;9.904;2023-04-23T11:54:02;99842.34;;;21.28;39.81
16255;BME280;8235;52.198;9.904;2023-04-23T11:56:30;99848.88;;;21.34;40.20
16255;BME280;8235;52.198;9.904;2023-04-23T11:58:58;99845.78;;;21.37;39.14
16255;BME280;8235;52.198;9.904;2023-04-23T12:01:25;99851.75;;;21.32;38.90
16255;BME280;8235;52.198;9.904;2023-04-23T12:03:51;99840.28;;;21.30;38.78
16255;BME280;8235;52.198;9.904;2023-04-23T12:06:18;99843.72;;;21.24;39.25
16255;BME280;8235;52.198;9.904;2023-04-23T12:08:45;99834.63;;;21.17;39.24
16255;BME280;8235;52.198;9.904;2023-04-23T12:11:12;99842.75;;;21.17;39.46
16255;BME280;8235;52.198;9.904;2023-04-23T12:13:40;99838.69;;;21.21;39.67
16255;BME280;8235;52.198;9.904;2023-04-23T12:16:07;99840.69;;;21.19;39.32
16255;BME280;8235;52.198;9.904;2023-04-23T12:18:38;99838.94;;;21.11;39.87
16255;BME280;8235;52.198;9.904;2023-04-23T12:21:07;99842.00;;;21.08;41.04
16255;BME280;8235;52.198;9.904;2023-04-23T12:23:34;99858.31;;;21.00;41.94
16255;BME280;8235;52.198;9.904;2023-04-23T12:26:02;99848.25;;;20.71;42.13
16255;BME280;8235;52.198;9.904;2023-04-23T12:28:29;99854.03;;;20.45;42.40
16255;BME280;8235;52.198;9.904;2023-04-23T12:31:00;99850.47;;;20.14;43.49
16255;BME280;8235;52.198;9.904;2023-04-23T12:33:28;99840.28;;;19.93;44.21
16255;BME280;8235;52.198;9.904;2023-04-23T12:35:54;99842.72;;;19.80;45.15
16255;BME280;8235;52.198;9.904;2023-04-23T12:38:22;99847.13;;;19.73;45.39
16255;BME280;8235;52.198;9.904;2023-04-23T12:40:49;99848.69;;;19.67;45.63
16255;BME280;8235;52.198;9.904;2023-04-23T12:43:16;99847.69;;;19.60;45.74
16255;BME280;8235;52.198;9.904;2023-04-23T12:45:43;99847.53;;;19.54;45.45
16255;BME280;8235;52.198;9.904;2023-04-23T12:48:12;99840.84;;;19.50;45.06
16255;BME280;8235;52.198;9.904;2023-04-23T12:50:39;99846.38;;;19.48;44.98
16255;BME280;8235;52.198;9.904;2023-04-23T12:53:06;99843.69;;;19.48;44.73
16255;BME280;8235;52.198;9.904;2023-04-23T12:55:33;99840.97;;;19.48;45.18
16255;BME280;8235;52.198;9.904;2023-04-23T12:57:59;99843.84;;;19.55;44.25
16255;BME280;8235;52.198;9.904;2023-04-23T13:00:26;99840.44;;;19.61;44.05
16255;BME280;8235;52.198;9.904;2023-04-23T13:02:53;99843.31;;;19.67;43.54
16255;BME280;8235;52.198;9.904;2023-04-23T13:05:22;99834.28;;;19.75;43.21
16255;BME280;8235;52.198;9.904;2023-04-23T13:07:49;99832.41;;;19.84;43.15
16255;BME280;8235;52.198;9.904;2023-04-23T13:10:18;99823.06;;;19.94;43.16